Time;durP1;ratioP1;P1;durP2;ratioP2;P2;SDS_P1;SDS_P2;PMS_P1;PMS_P2;Temp;Humidity;BMP_temperature;BMP_pressure;BME280_temperature;BME280_humidity;BME280_pressure;Samples;Min_cycle;Max_cycle;Signal;HPM_P1;HPM_P2
2022/05/20 00:00:50;;;;;;;3.40;3.10;;;23.60;86.60;;;;;;6260653;27;89221;-65
2022/05/20 00:03:52;;;;;;;3.30;3.10;;;23.60;86.60;;;;;;6259597;27;89238;-65
2022/05/20 00:06:56;;;;;;;3.72;3.38;;;23.60;86.60;;;;;;6260327;27;89354;-66
2022/05/20 00:09:58;;;;;;;4.00;3.60;;;23.60;86.60;;;;;;6259872;27;89016;-64
2022/05/20 00:13:00;;;;;;;4.40;4.00;;;23.60;86.50;;;;;;6259436;27;89017;-65
2022/05/20 00:16:03;;;;;;;3.90;3.60;;;23.60;86.50;;;;;;6259160;27;88819;-65
2022/05/20 00:19:06;;;;;;;3.80;3.50;;;23.70;86.60;;;;;;6258956;27;89129;-65
2022/05/20 00:22:10;;;;;;;3.90;3.60;;;23.60;86.50;;;;;;6260059;27;89137;-65
2022/05/20 00:28:34;;;;;;;3.70;3.40;;;23.70;86.50;;;;;;6256550;27;87329;-64
2022/05/20 00:31:36;;;;;;;3.70;3.40;;;23.60;86.50;;;;;;6256780;27;87982;-65
2022/05/20 00:34:38;;;;;;;4.13;3.72;;;23.60;86.40;;;;;;6258339;27;88825;-65
2022/05/20 00:37:41;;;;;;;3.90;3.50;;;23.60;86.50;;;;;;6259294;27;89091;-66
2022/05/20 00:40:44;;;;;;;3.90;3.50;;;23.60;86.60;;;;;;6259248;27;89015;-65
2022/05/20 00:43:48;;;;;;;3.60;3.30;;;23.60;86.60;;;;;;6259373;27;89111;-65
2022/05/20 00:46:50;;;;;;;3.63;3.33;;;23.60;86.60;;;;;;6245259;27;89107;-64
2022/05/20 00:49:55;;;;;;;3.70;3.40;;;23.60;86.70;;;;;;6255232;27;89135;-65
2022/05/20 00:52:59;;;;;;;3.75;3.45;;;23.60;86.70;;;;;;6259230;27;89192;-65
2022/05/20 00:56:04;;;;;;;3.75;3.45;;;23.60;86.70;;;;;;6259265;27;88351;-64
2022/05/20 00:59:08;;;;;;;4.30;3.90;;;23.60;86.70;;;;;;6258858;27;89074;-65
2022/05/20 01:02:20;;;;;;;3.83;3.53;;;23.60;86.60;;;;;;6257804;27;89088;-64
2022/05/20 01:05:27;;;;;;;4.05;3.70;;;23.60;86.60;;;;;;6258017;27;88996;-65
2022/05/20 01:08:32;;;;;;;3.78;3.47;;;23.60;86.60;;;;;;6258501;27;89047;-65
2022/05/20 01:11:37;;;;;;;4.10;3.78;;;23.60;86.60;;;;;;6258674;27;88238;-65
2022/05/20 01:14:39;;;;;;;4.60;4.10;;;23.60;86.60;;;;;;6258382;27;89066;-64
2022/05/20 01:17:42;;;;;;;4.03;3.70;;;23.60;86.50;;;;;;6258718;27;89087;-65
2022/05/20 01:20:47;;;;;;;4.00;3.70;;;23.60;87.40;;;;;;6245578;27;89050;-66
2022/05/20 01:23:50;;;;;;;4.53;4.13;;;23.60;86.50;;;;;;6257750;27;89096;-65
2022/05/20 01:26:52;;;;;;;4.60;4.20;;;23.60;86.50;;;;;;6258468;27;88670;-65
2022/05/20 01:29:54;;;;;;;4.40;4.00;;;23.70;86.60;;;;;;6254623;27;89136;-64
2022/05/20 01:32:59;;;;;;;4.25;3.85;;;23.60;86.60;;;;;;6253430;27;89064;-64
2022/05/20 01:36:03;;;;;;;4.40;4.00;;;23.60;86.60;;;;;;6258049;27;90255;-65
2022/05/20 01:39:06;;;;;;;4.75;4.35;;;23.60;86.60;;;;;;6258642;27;89279;-65
2022/05/20 01:42:12;;;;;;;4.53;4.13;;;23.60;86.60;;;;;;6249892;27;89438;-65
2022/05/20 01:45:18;;;;;;;4.57;4.18;;;23.60;86.60;;;;;;6254448;27;89399;-65
2022/05/20 01:48:26;;;;;;;5.00;4.60;;;23.60;86.60;;;;;;6253546;27;89052;-65
2022/05/20 01:51:34;;;;;;;5.00;4.60;;;23.60;86.60;;;;;;6257668;27;89129;-65
2022/05/20 01:54:55;;;;;;;4.90;4.50;;;23.60;86.60;;;;;;6257574;27;89102;-65
2022/05/20 01:58:04;;;;;;;5.03;4.63;;;23.60;86.50;;;;;;6258337;27;89995;-64
2022/05/20 02:01:12;;;;;;;5.20;4.70;;;23.60;86.50;;;;;;6258236;27;90146;-65
2022/05/20 02:04:20;;;;;;;5.20;4.70;;;23.60;86.60;;;;;;6257970;27;89512;-65
2022/05/20 02:07:26;;;;;;;4.93;4.47;;;23.60;86.50;;;;;;6257103;27;90157;-64
2022/05/20 02:10:34;;;;;;;5.05;4.65;;;23.60;86.50;;;;;;6257282;27;89086;-64
2022/05/20 02:13:40;;;;;;;5.20;4.70;;;23.60;86.40;;;;;;6254827;27;89093;-65
2022/05/20 02:16:50;;;;;;;5.20;4.72;;;23.60;86.40;;;;;;6253963;27;87961;-65
2022/05/20 02:19:56;;;;;;;5.50;5.00;;;23.60;86.60;;;;;;6253077;27;88476;-65
2022/05/20 02:23:03;;;;;;;5.70;5.20;;;23.60;86.60;;;;;;6256807;27;89169;-65
2022/05/20 02:26:12;;;;;;;5.90;5.30;;;23.60;86.70;;;;;;6255294;27;89045;-65
2022/05/20 02:29:16;;;;;;;5.68;5.18;;;23.60;86.60;;;;;;6240120;27;88325;-64
2022/05/20 02:32:23;;;;;;;5.72;5.22;;;23.60;86.70;;;;;;6243770;27;89414;-65
2022/05/20 02:35:25;;;;;;;5.53;5.05;;;23.60;86.60;;;;;;6241669;27;89741;-65
2022/05/20 02:38:27;;;;;;;5.90;5.40;;;23.60;86.60;;;;;;6252958;27;90536;-65
2022/05/20 02:41:31;;;;;;;5.53;5.07;;;23.60;86.60;;;;;;6256946;27;89027;-65
2022/05/20 02:44:33;;;;;;;5.50;5.00;;;23.60;86.60;;;;;;6256808;27;89259;-65
2022/05/20 02:47:36;;;;;;;5.50;5.00;;;23.60;86.50;;;;;;6249516;27;89131;-65
2022/05/20 02:50:38;;;;;;;5.95;5.45;;;23.60;86.50;;;;;;6256628;27;89014;-66
2022/05/20 02:53:40;;;;;;;5.68;5.18;;;23.60;86.50;;;;;;6256245;27;89194;-64
2022/05/20 02:56:43;;;;;;;5.70;5.07;;;23.60;86.50;;;;;;6256379;27;89257;-65
2022/05/20 03:06:27;;;;;;;5.82;5.32;;;23.60;86.60;;;;;;6230363;27;88041;-65
2022/05/20 03:09:29;;;;;;;6.10;5.60;;;23.60;86.60;;;;;;6256011;27;89892;-65
2022/05/20 03:12:35;;;;;;;5.80;5.30;;;23.60;87.50;;;;;;6256697;27;89070;-64
2022/05/20 03:15:39;;;;;;;5.90;5.40;;;23.60;86.70;;;;;;6257014;27;89232;-65
2022/05/20 03:18:41;;;;;;;6.47;5.90;;;23.60;86.70;;;;;;6256168;27;89081;-65
2022/05/20 03:21:43;;;;;;;6.57;5.97;;;23.60;86.70;;;;;;6256232;27;89155;-65
2022/05/20 03:24:45;;;;;;;6.07;5.57;;;23.60;86.70;;;;;;6256972;27;89010;-65
2022/05/20 03:27:49;;;;;;;6.10;5.60;;;23.60;86.70;;;;;;6261232;27;89366;-64
2022/05/20 03:30:51;;;;;;;6.25;5.70;;;23.60;86.60;;;;;;6248389;27;88403;-66
2022/05/20 03:33:53;;;;;;;6.47;5.88;;;23.60;86.60;;;;;;6260229;27;89120;-65
2022/05/20 03:36:55;;;;;;;6.50;5.90;;;23.60;86.60;;;;;;6260042;27;88941;-65
2022/05/20 03:39:57;;;;;;;6.07;5.57;;;23.60;86.60;;;;;;6259434;27;90011;-64
2022/05/20 03:43:02;;;;;;;6.80;6.20;;;23.60;86.60;;;;;;6260476;27;89462;-65
2022/05/20 03:46:04;;;;;;;6.43;5.82;;;23.60;86.60;;;;;;6259314;27;89358;-65
2022/05/20 03:49:06;;;;;;;6.57;5.97;;;23.60;86.60;;;;;;6251460;27;89076;-65
2022/05/20 03:52:09;;;;;;;6.43;5.88;;;23.60;86.60;;;;;;6260710;27;89071;-64
2022/05/20 03:55:11;;;;;;;6.38;5.78;;;23.60;86.60;;;;;;6260303;27;89223;-66
2022/05/20 03:58:14;;;;;;;6.40;5.85;;;23.60;86.70;;;;;;6259705;27;89140;-65
2022/05/20 04:04:38;;;;;;;6.55;5.95;;;23.60;86.70;;;;;;6260513;27;87230;-65
2022/05/20 04:07:40;;;;;;;6.60;5.90;;;23.60;86.70;;;;;;6260623;27;89056;-66
2022/05/20 04:10:42;;;;;;;6.75;6.15;;;23.60;86.70;;;;;;6258790;27;90013;-65
2022/05/20 04:13:46;;;;;;;6.90;6.20;;;23.60;86.70;;;;;;6258646;27;89024;-65
2022/05/20 04:16:48;;;;;;;6.63;6.03;;;23.60;86.60;;;;;;6259393;27;89503;-65
2022/05/20 04:19:50;;;;;;;6.78;6.18;;;23.60;86.60;;;;;;6242813;27;89070;-66
2022/05/20 04:22:52;;;;;;;6.80;6.20;;;23.60;86.60;;;;;;6256968;27;89064;-66
2022/05/20 04:25:54;;;;;;;6.65;6.05;;;23.60;86.60;;;;;;6236482;27;89350;-64
2022/05/20 04:28:57;;;;;;;6.40;5.80;;;23.60;86.60;;;;;;6240427;27;89066;-65
2022/05/20 04:32:00;;;;;;;6.22;5.68;;;23.60;86.60;;;;;;6259753;27;88320;-64
2022/05/20 04:35:02;;;;;;;6.70;6.10;;;23.60;86.50;;;;;;6259959;27;89457;-65
2022/05/20 04:38:04;;;;;;;6.72;6.13;;;23.60;86.60;;;;;;6254952;27;89056;-65
2022/05/20 04:47:46;;;;;;;6.63;6.03;;;23.60;86.60;;;;;;6259640;27;87320;-65
2022/05/20 04:50:48;;;;;;;6.15;5.65;;;23.70;86.70;;;;;;6259558;27;87896;-65
2022/05/20 04:57:18;;;;;;;6.72;6.13;;;23.60;86.40;;;;;;6258825;27;88327;-65
2022/05/20 05:00:23;;;;;;;6.53;6.00;;;23.70;86.30;;;;;;6258779;27;89821;-65
2022/05/20 05:03:25;;;;;;;6.70;6.10;;;23.70;86.30;;;;;;6259684;27;87072;-65
2022/05/20 05:06:27;;;;;;;6.45;5.85;;;23.70;86.20;;;;;;6245342;27;89093;-65
2022/05/20 05:09:29;;;;;;;6.35;5.85;;;23.70;86.10;;;;;;6246404;27;89093;-65
2022/05/20 05:12:32;;;;;;;6.20;5.70;;;23.70;86.10;;;;;;6244988;27;88797;-65
2022/05/20 05:15:35;;;;;;;5.85;5.35;;;23.70;86.10;;;;;;6258614;27;89227;-65
2022/05/20 05:18:37;;;;;;;6.45;5.85;;;23.80;86.10;;;;;;6258590;27;89121;-66
2022/05/20 05:21:40;;;;;;;6.22;5.68;;;23.70;86.00;;;;;;6258538;27;89105;-65
2022/05/20 05:24:42;;;;;;;6.25;5.65;;;23.80;85.90;;;;;;6239716;27;89118;-66
2022/05/20 05:27:46;;;;;;;6.38;5.78;;;23.80;85.90;;;;;;6250561;27;88990;-65
2022/05/20 05:30:51;;;;;;;6.25;5.75;;;23.80;85.90;;;;;;6258419;27;88103;-66
2022/05/20 05:33:53;;;;;;;6.05;5.53;;;23.80;85.90;;;;;;6258404;27;88409;-66
2022/05/20 05:36:55;;;;;;;6.22;5.65;;;23.80;85.90;;;;;;6257916;27;89110;-65
2022/05/20 05:39:57;;;;;;;6.75;6.15;;;23.80;85.90;;;;;;6258006;27;89078;-65
2022/05/20 05:42:59;;;;;;;6.18;5.68;;;23.80;85.90;;;;;;6257258;27;89967;-65
2022/05/20 05:46:03;;;;;;;6.13;5.63;;;23.80;85.80;;;;;;6258040;27;89113;-65
2022/05/20 05:49:07;;;;;;;6.70;6.10;;;23.80;85.80;;;;;;6257420;27;89304;-65
2022/05/20 05:52:09;;;;;;;6.50;5.90;;;23.80;85.80;;;;;;6257692;27;88942;-65
2022/05/20 05:55:11;;;;;;;6.38;5.80;;;23.90;86.00;;;;;;6257581;27;89391;-65
2022/05/20 05:58:14;;;;;;;6.47;5.88;;;23.80;85.90;;;;;;6257437;27;89095;-65
2022/05/20 06:01:18;;;;;;;6.28;5.68;;;23.90;85.90;;;;;;6258053;27;88872;-65
2022/05/20 06:04:20;;;;;;;5.65;5.15;;;23.80;85.80;;;;;;6257942;27;88378;-65
2022/05/20 06:07:22;;;;;;;5.68;5.18;;;23.90;86.00;;;;;;6257611;27;88999;-65
2022/05/20 06:10:24;;;;;;;6.15;5.60;;;23.90;85.90;;;;;;6257697;27;88651;-65
2022/05/20 06:13:29;;;;;;;6.28;5.68;;;23.90;86.10;;;;;;6256817;27;90043;-64
2022/05/20 06:16:32;;;;;;;6.50;5.90;;;23.90;86.10;;;;;;6257849;27;89293;-64
2022/05/20 06:19:34;;;;;;;6.28;5.75;;;23.90;86.10;;;;;;6256858;27;87879;-64
2022/05/20 06:22:36;;;;;;;5.80;5.30;;;23.90;86.10;;;;;;6257164;27;89121;-64
2022/05/20 06:25:38;;;;;;;6.28;5.68;;;23.90;86.10;;;;;;6257468;27;89106;-65
2022/05/20 06:28:40;;;;;;;6.38;5.78;;;23.90;86.10;;;;;;6257639;27;89433;-65
2022/05/20 06:31:44;;;;;;;6.13;5.63;;;23.90;86.10;;;;;;6257357;27;89106;-64
2022/05/20 06:41:25;;;;;;;6.15;5.57;;;23.90;86.30;;;;;;6256967;27;87201;-64
2022/05/20 06:44:28;;;;;;;5.90;5.40;;;23.90;86.30;;;;;;6256296;27;90015;-64
2022/05/20 06:47:31;;;;;;;6.13;5.63;;;23.90;86.40;;;;;;6257002;27;89014;-64
2022/05/20 06:50:36;;;;;;;5.57;5.07;;;23.90;86.40;;;;;;6256779;27;88927;-64
2022/05/20 06:53:38;;;;;;;6.00;5.50;;;23.90;86.40;;;;;;6257031;27;89039;-65
2022/05/20 06:56:44;;;;;;;5.93;5.35;;;23.90;86.40;;;;;;6257090;27;88350;-65
2022/05/20 06:59:46;;;;;;;5.72;5.22;;;23.90;86.40;;;;;;6255196;27;89240;-65
2022/05/20 07:02:49;;;;;;;6.07;5.57;;;24.00;86.40;;;;;;6256959;27;90915;-65
2022/05/20 07:05:51;;;;;;;5.85;5.35;;;24.00;86.40;;;;;;6256563;27;88316;-65
2022/05/20 07:08:53;;;;;;;5.82;5.32;;;24.00;86.40;;;;;;6256317;27;89001;-65
2022/05/20 07:11:55;;;;;;;5.30;4.90;;;24.00;86.40;;;;;;6256508;27;89043;-65
2022/05/20 07:15:00;;;;;;;5.88;5.38;;;24.00;86.30;;;;;;6255531;27;89897;-65
2022/05/20 07:18:03;;;;;;;5.78;5.28;;;24.00;86.40;;;;;;6253021;27;89604;-65
2022/05/20 07:21:05;;;;;;;6.00;5.50;;;24.00;86.40;;;;;;6244839;27;89144;-65
2022/05/20 07:24:08;;;;;;;5.63;5.13;;;24.00;86.60;;;;;;6255913;27;89521;-65
2022/05/20 07:27:11;;;;;;;6.00;5.50;;;24.00;86.60;;;;;;6255916;27;89033;-65
2022/05/20 07:30:14;;;;;;;5.90;5.40;;;24.00;86.60;;;;;;6256538;27;89023;-65
2022/05/20 07:33:18;;;;;;;5.90;5.40;;;24.00;86.60;;;;;;6256178;27;89310;-65
2022/05/20 07:36:20;;;;;;;5.97;5.47;;;24.00;86.60;;;;;;6256296;27;88575;-65
2022/05/20 07:39:22;;;;;;;5.70;5.20;;;24.00;86.60;;;;;;6255797;27;89080;-64
2022/05/20 07:42:24;;;;;;;5.82;5.32;;;24.00;86.70;;;;;;6256003;27;88922;-65
2022/05/20 07:45:26;;;;;;;5.63;5.13;;;24.00;86.70;;;;;;6255359;27;90343;-65
2022/05/20 07:48:30;;;;;;;5.53;5.03;;;24.00;86.60;;;;;;6242828;27;88046;-65
2022/05/20 07:51:34;;;;;;;5.50;5.00;;;24.00;86.70;;;;;;6256178;27;89077;-65
2022/05/20 07:54:41;;;;;;;5.85;5.35;;;24.00;86.70;;;;;;6255957;27;89782;-65
2022/05/20 07:57:43;;;;;;;5.05;4.63;;;24.00;86.60;;;;;;6256416;27;89008;-64
2022/05/20 08:00:46;;;;;;;5.60;5.10;;;24.00;86.60;;;;;;6256041;27;89142;-65
2022/05/20 08:07:15;;;;;;;5.65;5.15;;;24.00;86.80;;;;;;6256737;27;86639;-65
2022/05/20 08:10:20;;;;;;;5.60;5.10;;;24.00;86.90;;;;;;6256102;27;87934;-65
2022/05/20 08:13:23;;;;;;;5.40;5.00;;;24.00;86.90;;;;;;6260506;27;89042;-64
2022/05/20 08:16:25;;;;;;;5.45;5.05;;;24.00;86.90;;;;;;6259603;27;90002;-64
2022/05/20 08:19:29;;;;;;;6.00;5.50;;;24.00;86.90;;;;;;6259767;27;89397;-64
2022/05/20 08:22:32;;;;;;;5.25;4.82;;;24.00;86.90;;;;;;6259098;27;89100;-64
2022/05/20 08:25:36;;;;;;;5.78;5.28;;;24.00;86.90;;;;;;6247409;27;89055;-64
2022/05/20 08:28:38;;;;;;;5.78;5.28;;;24.00;87.00;;;;;;6259810;27;89020;-64
2022/05/20 08:31:40;;;;;;;5.40;4.90;;;24.00;87.00;;;;;;6259450;27;89416;-65
2022/05/20 08:34:44;;;;;;;5.32;4.88;;;24.00;86.90;;;;;;6259710;27;89127;-64
2022/05/20 08:37:47;;;;;;;5.22;4.82;;;24.00;86.90;;;;;;6260289;27;88342;-64
2022/05/20 08:40:50;;;;;;;5.45;4.95;;;24.00;86.90;;;;;;6259277;27;89049;-65
2022/05/20 08:43:52;;;;;;;5.20;4.80;;;24.00;86.90;;;;;;6259660;27;88999;-64
2022/05/20 08:47:12;;;;;;;5.32;4.82;;;24.00;86.90;;;;;;6258753;27;89985;-64
2022/05/20 08:50:20;;;;;;;5.20;4.80;;;24.00;86.80;;;;;;6234921;27;89101;-65
2022/05/20 08:53:29;;;;;;;5.40;4.90;;;24.00;86.80;;;;;;6259007;27;91107;-65
2022/05/20 08:56:32;;;;;;;5.15;4.75;;;24.00;86.90;;;;;;6258957;27;89158;-65
2022/05/20 08:59:34;;;;;;;5.43;4.95;;;24.00;87.10;;;;;;6248196;27;91415;-65
2022/05/20 09:02:36;;;;;;;5.20;4.70;;;24.00;87.20;;;;;;6259208;27;91152;-64
2022/05/20 09:05:42;;;;;;;5.35;4.93;;;24.00;87.20;;;;;;6259179;27;89235;-64
2022/05/20 09:08:45;;;;;;;4.85;4.35;;;24.00;87.30;;;;;;6253679;27;87951;-64
2022/05/20 09:11:55;;;;;;;5.57;5.07;;;24.00;87.30;;;;;;6252097;27;89290;-64
2022/05/20 09:18:32;;;;;;;4.80;4.40;;;24.00;87.30;;;;;;6258437;27;88087;-64
2022/05/20 09:21:39;;;;;;;5.10;4.70;;;24.00;87.20;;;;;;6258582;27;88963;-65
2022/05/20 09:24:43;;;;;;;5.13;4.72;;;24.00;87.20;;;;;;6257505;27;87982;-65
2022/05/20 09:27:46;;;;;;;5.13;4.72;;;24.00;87.20;;;;;;6258908;27;88417;-64
2022/05/20 09:30:52;;;;;;;5.25;4.85;;;24.10;87.30;;;;;;6258415;27;89271;-65
2022/05/20 09:34:04;;;;;;;5.00;4.50;;;24.00;87.20;;;;;;6258492;27;89524;-65
2022/05/20 09:37:18;;;;;;;5.00;4.60;;;24.10;87.20;;;;;;6258248;27;87867;-64
2022/05/20 09:40:24;;;;;;;5.40;5.00;;;24.10;87.20;;;;;;6259719;27;87529;-65
2022/05/20 09:43:29;;;;;;;4.93;4.53;;;24.10;87.30;;;;;;6257863;27;89087;-64
2022/05/20 09:46:40;;;;;;;5.60;5.10;;;24.00;87.30;;;;;;6255295;27;89094;-65
2022/05/20 09:49:48;;;;;;;5.30;4.90;;;24.00;87.40;;;;;;6257504;27;89994;-65
2022/05/20 09:52:56;;;;;;;5.28;4.80;;;24.00;87.50;;;;;;6244618;27;89377;-65
2022/05/20 09:56:22;;;;;;;4.97;4.57;;;24.00;87.60;;;;;;6257787;27;89046;-65
2022/05/20 09:59:41;;;;;;;4.72;4.32;;;24.00;87.60;;;;;;6257783;27;89019;-65
2022/05/20 10:02:50;;;;;;;4.82;4.43;;;24.00;87.60;;;;;;6257566;27;89018;-65
2022/05/20 10:05:58;;;;;;;4.93;4.53;;;24.10;87.70;;;;;;6257804;27;89170;-65
2022/05/20 10:09:06;;;;;;;4.97;4.53;;;24.00;87.70;;;;;;6258099;27;89679;-65
2022/05/20 10:12:13;;;;;;;5.22;4.82;;;24.00;87.70;;;;;;6258278;27;88326;-65
2022/05/20 10:15:21;;;;;;;5.20;4.80;;;24.00;87.70;;;;;;6257896;27;89420;-65
2022/05/20 10:18:33;;;;;;;5.15;4.75;;;24.00;87.80;;;;;;6257952;27;89077;-65
2022/05/20 10:21:49;;;;;;;4.82;4.43;;;24.10;87.90;;;;;;6256606;27;90041;-65
2022/05/20 10:25:00;;;;;;;5.10;4.70;;;24.10;87.70;;;;;;6257367;27;89009;-65
2022/05/20 10:28:07;;;;;;;4.97;4.57;;;24.00;87.40;;;;;;6257415;27;89684;-64
2022/05/20 10:34:37;;;;;;;5.00;4.60;;;24.10;87.70;;;;;;6256765;27;87103;-64
2022/05/20 10:38:00;;;;;;;4.65;4.25;;;24.10;87.70;;;;;;6257067;27;88426;-65
2022/05/20 10:41:08;;;;;;;4.88;4.47;;;24.10;87.80;;;;;;6257120;27;89122;-65
2022/05/20 10:51:38;;;;;;;4.88;4.47;;;24.10;88.10;;;;;;6257239;27;87277;-65
2022/05/20 10:54:56;;;;;;;5.00;4.60;;;24.00;88.10;;;;;;6256256;27;90072;-64
2022/05/20 10:58:33;;;;;;;4.80;4.40;;;24.00;88.10;;;;;;6256782;27;89126;-64
2022/05/20 11:01:45;;;;;;;4.97;4.57;;;24.10;88.20;;;;;;6256610;27;88875;-64
2022/05/20 11:05:26;;;;;;;4.70;4.30;;;24.10;88.30;;;;;;6244271;27;89675;-65
2022/05/20 11:08:38;;;;;;;4.90;4.50;;;24.10;88.30;;;;;;6242132;27;89125;-65
2022/05/20 11:11:55;;;;;;;4.78;4.38;;;24.10;88.20;;;;;;6256734;27;89044;-65
2022/05/20 11:15:23;;;;;;;4.70;4.30;;;24.10;88.00;;;;;;6256870;27;89250;-65
2022/05/20 11:18:59;;;;;;;4.25;3.95;;;24.10;87.90;;;;;;6251227;27;88524;-65
2022/05/20 11:22:19;;;;;;;4.63;4.22;;;24.10;87.90;;;;;;6240355;27;89271;-65
2022/05/20 11:25:38;;;;;;;4.82;4.43;;;24.10;88.00;;;;;;6256335;27;88484;-65
2022/05/20 11:28:59;;;;;;;4.80;4.40;;;24.10;88.00;;;;;;6256206;27;88939;-65
2022/05/20 11:32:06;;;;;;;4.53;4.13;;;24.10;88.20;;;;;;6244309;27;89064;-65
2022/05/20 11:35:27;;;;;;;4.65;4.30;;;24.10;88.20;;;;;;6256565;27;89042;-65
2022/05/20 11:38:49;;;;;;;4.45;4.07;;;24.00;88.30;;;;;;6252121;28;89029;-65
2022/05/20 11:42:03;;;;;;;4.45;4.13;;;24.10;88.30;;;;;;6255870;27;87935;-65
2022/05/20 11:45:16;;;;;;;4.63;4.22;;;24.10;88.30;;;;;;6256375;27;87899;-65
2022/05/20 11:48:45;;;;;;;4.80;4.40;;;24.10;88.30;;;;;;6261089;27;90792;-64
2022/05/20 11:52:11;;;;;;;4.20;3.90;;;24.10;88.40;;;;;;6249009;27;88298;-65
2022/05/20 11:55:18;;;;;;;4.45;4.10;;;24.10;88.40;;;;;;6248745;27;89009;-65
2022/05/20 11:58:27;;;;;;;4.47;4.07;;;24.10;88.40;;;;;;6250670;28;89002;-65
2022/05/20 12:01:29;;;;;;;4.53;4.13;;;24.10;88.30;;;;;;6259044;27;90232;-65
2022/05/20 12:04:35;;;;;;;4.60;4.20;;;24.10;88.10;;;;;;6260464;27;89069;-65
2022/05/20 12:07:38;;;;;;;4.68;4.28;;;24.10;88.20;;;;;;6259748;27;89058;-65
2022/05/20 12:10:45;;;;;;;4.43;4.10;;;24.10;88.30;;;;;;6260418;27;88994;-65
2022/05/20 12:14:03;;;;;;;4.25;3.95;;;24.10;88.30;;;;;;6259754;27;88996;-65
2022/05/20 12:17:06;;;;;;;4.25;3.95;;;24.10;88.30;;;;;;6260210;27;87864;-65
2022/05/20 12:27:10;;;;;;;4.43;4.03;;;24.10;88.50;;;;;;6254538;27;87807;-65
2022/05/20 12:30:36;;;;;;;4.90;3.95;;;24.10;88.60;;;;;;6259856;27;89190;-65
2022/05/20 12:33:53;;;;;;;4.60;4.20;;;24.10;88.90;;;;;;6259015;27;89009;-65
2022/05/20 12:36:57;;;;;;;4.50;4.13;;;24.10;89.00;;;;;;6259663;27;89014;-65
2022/05/20 12:39:59;;;;;;;4.72;4.32;;;24.10;89.00;;;;;;6259333;27;89041;-65
2022/05/20 12:43:08;;;;;;;4.50;4.10;;;24.10;88.90;;;;;;6259416;27;89011;-65
2022/05/20 12:46:17;;;;;;;4.30;4.00;;;24.10;88.90;;;;;;6259104;27;88886;-66
2022/05/20 12:49:21;;;;;;;4.60;4.20;;;24.10;88.70;;;;;;6259088;27;88943;-65
2022/05/20 12:52:27;;;;;;;4.72;4.15;;;24.10;89.10;;;;;;6259633;27;88967;-65
2022/05/20 12:55:37;;;;;;;4.65;4.18;;;24.10;89.80;;;;;;6259811;27;88370;-65
2022/05/20 12:58:39;;;;;;;4.40;4.00;;;24.10;89.90;;;;;;6259075;27;89000;-65
2022/05/20 13:01:46;;;;;;;4.38;3.97;;;24.10;89.70;;;;;;6258624;27;89126;-66
2022/05/20 13:04:56;;;;;;;4.35;3.95;;;24.10;89.40;;;;;;6259657;27;89964;-65
2022/05/20 13:08:03;;;;;;;4.43;4.03;;;24.10;89.40;;;;;;6246885;27;88833;-65
2022/05/20 13:11:09;;;;;;;4.55;4.15;;;24.10;89.50;;;;;;6258483;27;89289;-65
2022/05/20 13:14:14;;;;;;;4.40;4.00;;;24.10;89.60;;;;;;6258872;27;89007;-65
2022/05/20 13:17:16;;;;;;;5.15;4.35;;;24.10;89.60;;;;;;6258755;27;89099;-65
2022/05/20 13:20:18;;;;;;;4.15;3.83;;;24.10;89.60;;;;;;6258650;27;89086;-66
2022/05/20 13:23:26;;;;;;;4.50;4.10;;;24.10;89.60;;;;;;6259100;27;88970;-66
2022/05/20 13:26:31;;;;;;;4.30;4.00;;;24.10;89.70;;;;;;6259149;27;88192;-65
2022/05/20 13:29:33;;;;;;;4.03;3.72;;;24.10;89.60;;;;;;6258321;27;89256;-65
2022/05/20 13:32:35;;;;;;;4.47;4.03;;;24.10;89.70;;;;;;6259099;27;89049;-65
2022/05/20 13:35:41;;;;;;;4.40;4.00;;;24.10;89.80;;;;;;6258113;27;90042;-65
2022/05/20 13:38:50;;;;;;;4.25;3.92;;;24.10;89.40;;;;;;6258950;28;90278;-65
2022/05/20 13:41:54;;;;;;;4.15;3.80;;;24.10;89.40;;;;;;6258123;27;89197;-65
2022/05/20 13:44:56;;;;;;;4.10;3.70;;;24.10;89.30;;;;;;6258758;27;88223;-65
2022/05/20 13:51:19;;;;;;;4.40;4.00;;;24.10;89.40;;;;;;6257903;27;87312;-65
2022/05/20 13:54:26;;;;;;;3.97;3.67;;;24.10;89.30;;;;;;6258001;27;89062;-65
2022/05/20 13:57:33;;;;;;;3.88;3.58;;;24.10;89.30;;;;;;6245946;27;88375;-65
2022/05/20 14:00:42;;;;;;;3.90;3.58;;;24.10;89.40;;;;;;6257663;27;88952;-64
2022/05/20 14:03:48;;;;;;;4.28;3.88;;;24.10;89.40;;;;;;6258112;27;89104;-65
2022/05/20 14:06:52;;;;;;;3.95;3.65;;;24.10;89.40;;;;;;6256513;27;89897;-65
2022/05/20 14:09:58;;;;;;;4.20;3.90;;;24.10;89.60;;;;;;6257488;27;88958;-65
2022/05/20 14:13:04;;;;;;;4.03;3.63;;;24.10;89.60;;;;;;6258207;27;89435;-65
2022/05/20 14:16:11;;;;;;;3.80;3.50;;;24.10;89.60;;;;;;6257612;27;88107;-65
2022/05/20 14:19:18;;;;;;;4.32;3.92;;;24.10;89.60;;;;;;6257268;27;89098;-65
2022/05/20 14:22:25;;;;;;;4.00;3.70;;;24.10;89.60;;;;;;6257550;27;89063;-65
2022/05/20 14:25:31;;;;;;;4.45;4.03;;;24.10;89.40;;;;;;6257571;27;88988;-65
2022/05/20 14:28:45;;;;;;;4.18;3.63;;;24.10;89.60;;;;;;6257790;27;88358;-65
2022/05/20 14:31:51;;;;;;;4.20;3.80;;;24.10;89.40;;;;;;6257795;27;88873;-65
2022/05/20 14:34:57;;;;;;;3.95;3.65;;;24.10;89.40;;;;;;6257357;27;89178;-65
2022/05/20 14:38:03;;;;;;;4.22;3.90;;;24.20;89.40;;;;;;6256582;27;90375;-65
2022/05/20 14:41:07;;;;;;;4.30;3.90;;;24.10;89.30;;;;;;6256844;27;89030;-65
2022/05/20 14:44:14;;;;;;;3.80;3.50;;;24.20;89.40;;;;;;6257272;27;89111;-65
2022/05/20 14:47:23;;;;;;;4.10;3.78;;;24.20;89.30;;;;;;6253343;27;89124;-65
2022/05/20 14:50:28;;;;;;;3.80;3.50;;;24.20;89.30;;;;;;6245724;27;88977;-65
2022/05/20 14:53:37;;;;;;;3.90;3.60;;;24.20;89.30;;;;;;6257395;27;87896;-65
2022/05/20 14:56:43;;;;;;;3.65;3.35;;;24.20;89.20;;;;;;6256771;27;89054;-65
2022/05/20 14:59:45;;;;;;;4.07;3.65;;;24.20;89.30;;;;;;6245712;27;88385;-65
2022/05/20 15:02:48;;;;;;;4.20;3.80;;;24.20;89.40;;;;;;6256803;27;89136;-65
2022/05/20 15:05:52;;;;;;;4.05;3.65;;;24.20;89.40;;;;;;6256835;27;89100;-65
2022/05/20 15:08:55;;;;;;;3.53;3.22;;;24.20;89.40;;;;;;6256093;27;90044;-65
2022/05/20 15:11:58;;;;;;;4.28;3.60;;;24.20;89.40;;;;;;6256870;27;89287;-64
2022/05/20 15:15:00;;;;;;;3.70;3.40;;;24.20;89.30;;;;;;6256269;27;89063;-65
2022/05/20 15:18:06;;;;;;;3.90;3.58;;;24.30;89.40;;;;;;6255777;27;89074;-65
2022/05/20 15:21:12;;;;;;;3.60;3.30;;;24.20;89.40;;;;;;6256903;27;89247;-64
2022/05/20 15:24:19;;;;;;;4.22;3.83;;;24.20;89.40;;;;;;6261214;27;88963;-65
2022/05/20 15:27:24;;;;;;;5.32;3.50;;;24.30;90.20;;;;;;6259138;27;89089;-64
2022/05/20 15:30:26;;;;;;;4.15;3.75;;;24.20;90.00;;;;;;6258468;27;88322;-65
2022/05/20 15:36:48;;;;;;;4.30;3.90;;;24.20;90.40;;;;;;6260862;27;87319;-64
2022/05/20 15:39:53;;;;;;;5.72;3.50;;;24.20;90.40;;;;;;6260294;27;89211;-66
2022/05/20 15:42:58;;;;;;;7.45;4.22;;;24.20;90.50;;;;;;6253691;27;89097;-65
2022/05/20 15:46:00;;;;;;;14.15;4.70;;;24.20;91.20;;;;;;6255678;27;89390;-66
2022/05/20 15:49:02;;;;;;;12.40;4.65;;;24.20;92.20;;;;;;6258613;27;89169;-65
2022/05/20 15:52:06;;;;;;;16.58;4.72;;;24.20;92.80;;;;;;6244698;27;89079;-66
2022/05/20 15:55:15;;;;;;;8.60;4.20;;;24.30;93.10;;;;;;6257829;27;89169;-66
2022/05/20 15:58:22;;;;;;;9.60;4.47;;;24.30;93.10;;;;;;6257275;27;89336;-66
2022/05/20 16:01:24;;;;;;;10.32;4.18;;;24.30;92.90;;;;;;6256699;27;87507;-65
2022/05/20 16:04:26;;;;;;;9.18;4.28;;;24.30;92.90;;;;;;6256822;27;89191;-65
2022/05/20 16:07:29;;;;;;;6.78;3.97;;;24.30;92.80;;;;;;6257374;27;89095;-66
2022/05/20 16:10:34;;;;;;;6.10;4.10;;;24.30;92.60;;;;;;6256890;27;89869;-66
2022/05/20 16:13:37;;;;;;;11.88;4.30;;;24.30;92.60;;;;;;6257885;27;87913;-65
2022/05/20 16:16:39;;;;;;;8.75;4.20;;;24.30;92.20;;;;;;6257445;27;89345;-65
2022/05/20 16:19:41;;;;;;;6.43;3.90;;;24.30;92.50;;;;;;6257009;27;89117;-65
2022/05/20 16:22:44;;;;;;;7.85;4.18;;;24.30;92.40;;;;;;6256841;27;89020;-65
2022/05/20 16:25:47;;;;;;;4.80;4.00;;;24.30;92.70;;;;;;6256476;27;87993;-66
2022/05/20 16:28:52;;;;;;;5.57;3.72;;;24.30;92.30;;;;;;6257888;27;89684;-65
2022/05/20 16:31:54;;;;;;;4.53;3.63;;;24.30;92.70;;;;;;6257630;27;88345;-66
2022/05/20 16:34:56;;;;;;;5.95;4.00;;;24.30;92.50;;;;;;6256803;27;89303;-66
2022/05/20 16:37:58;;;;;;;7.15;3.67;;;24.30;92.50;;;;;;6256212;27;89526;-65
2022/05/20 16:41:01;;;;;;;5.95;3.38;;;24.30;92.40;;;;;;6252881;28;90294;-65
2022/05/20 16:44:04;;;;;;;3.95;3.45;;;24.30;92.30;;;;;;6256185;28;89064;-65
2022/05/20 16:47:07;;;;;;;5.28;3.50;;;24.30;92.10;;;;;;6254917;28;89115;-66
2022/05/20 16:50:11;;;;;;;7.72;3.90;;;24.30;92.00;;;;;;6255993;28;87193;-65
2022/05/20 16:53:15;;;;;;;4.35;3.60;;;24.30;91.90;;;;;;6255554;27;88879;-65
2022/05/20 17:02:58;;;;;;;3.72;3.15;;;24.30;91.90;;;;;;6255670;27;86594;-65
2022/05/20 17:06:02;;;;;;;4.65;3.45;;;24.30;91.90;;;;;;6256660;27;89390;-65
2022/05/20 17:09:04;;;;;;;5.30;3.80;;;24.40;91.90;;;;;;6253765;27;89037;-66
2022/05/20 17:12:07;;;;;;;4.53;3.55;;;24.30;91.80;;;;;;6254557;27;89994;-66